UHSS

Yuzhno-Sakhalinsk Airport

Yuzhno-Sakhalinsk, Russian Federation
TAF UHSS 151100Z 1512/1618 07003MPS 9999 BKN015CB OVC100 TEMPO 1518/1521 0700 FG VV002 BECMG 1603/1606 03008MPS
Issued Valid From Valid To
Aug-15 @ 11:00 UTC
(2 hours ago)
Aug-15 @ 12:00 UTC
(41 minutes ago)
Aug-16 @ 18:00 UTC
(-1 days ago)
Aug-15 @ 12:00 to Aug-16 @ 03:00
TAF UHSS 151100Z 1512/1618 07003MPS 9999 BKN015CB OVC100
Wind Visibility Clouds
70° at 6 knots 10,000+ meters
  • Broken at 1,500' AGL
  • Overcast at 10,000' AGL
Temporary Aug-15 @ 18:00 to Aug-15 @ 21:00
TEMPO 1518/1521 0700 FG VV002
Visibility Clouds Conditions
692 meters
  • Vertical visibility at 200' AGL
  • Fog
Becoming Aug-16 @ 03:00 to Aug-16 @ 18:00
BECMG 1603/1606 03008MPS
Wind Visibility Clouds
30° at 16 knots 10,000+ meters
  • Broken at 1,500' AGL
  • Overcast at 10,000' AGL
TAF UHSS 151100Z 1512/1618 07003MPS 9999 BKN015CB OVC100 TEMPO 1518/1521 0700 FG VV002 BECMG 1603/1606 03008MPS
Issued Aug-15 @ 11:00 UTC
(2 hours ago)
Valid From Aug-15 @ 12:00 UTC
(41 minutes ago)
Valid To Aug-16 @ 18:00 UTC
(-1 days ago)
Aug-15 @ 12:00 - Aug-16 @ 03:00
Wind Visibility
70° at 6 knots 10,000+ meters
Clouds
  • Broken at 1,500' AGL
  • Overcast at 10,000' AGL
Temporary Aug-15 @ 18:00 - Aug-15 @ 21:00
Clouds
  • Vertical visibility at 200' AGL
Conditions
  • Fog
Becoming Aug-16 @ 03:00 - Aug-16 @ 18:00
Wind Visibility
30° at 16 knots 10,000+ meters
Clouds
  • Broken at 1,500' AGL
  • Overcast at 10,000' AGL